createdAt,value
2023-04-26T00:00:24.010Z,7.43
2023-04-26T00:10:25.853Z,8.80
2023-04-26T00:20:28.027Z,7.03
2023-04-26T00:30:30.211Z,4.43
2023-04-26T00:40:32.143Z,4.65
2023-04-26T00:50:34.135Z,14.95
2023-04-26T01:00:36.803Z,4.38
2023-04-26T01:10:40.047Z,11.27
2023-04-26T01:20:42.335Z,13.18
2023-04-26T01:30:44.301Z,9.73
2023-04-26T01:40:46.257Z,6.82
2023-04-26T01:50:48.276Z,10.10
2023-04-26T02:00:50.162Z,17.20
2023-04-26T02:10:52.025Z,8.30
2023-04-26T02:20:53.935Z,6.72
2023-04-26T02:30:56.035Z,6.25
2023-04-26T02:41:02.283Z,12.98
2023-04-26T02:51:05.137Z,6.70
2023-04-26T03:01:07.721Z,8.82
2023-04-26T03:11:09.715Z,10.85
2023-04-26T03:21:11.677Z,30.00
2023-04-26T03:31:13.634Z,7.07
2023-04-26T03:41:17.411Z,9.98
2023-04-26T03:51:19.436Z,8.02
2023-04-26T04:01:21.763Z,20.27
2023-04-26T04:11:23.935Z,17.75
2023-04-26T04:21:26.261Z,10.88
2023-04-26T04:31:28.637Z,23.30
2023-04-26T04:41:30.780Z,11.85
2023-04-26T04:51:33.226Z,17.08
2023-04-26T05:01:35.678Z,6.75
2023-04-26T05:11:41.090Z,8.23
2023-04-26T05:21:44.986Z,4.43
2023-04-26T05:31:46.953Z,6.20
2023-04-26T05:41:58.179Z,6.28
2023-04-26T05:52:00.495Z,8.32
2023-04-26T06:02:03.254Z,7.68
2023-04-26T06:12:05.995Z,10.55
2023-04-26T06:22:11.802Z,7.68
2023-04-26T06:32:14.177Z,11.15
2023-04-26T06:42:16.448Z,11.95
2023-04-26T06:52:30.298Z,9.63
2023-04-26T07:02:32.567Z,4.90
2023-04-26T07:12:34.470Z,12.23
2023-04-26T07:22:36.334Z,10.35
2023-04-26T07:32:38.407Z,16.77
2023-04-26T07:42:40.609Z,17.52
2023-04-26T07:52:42.510Z,13.45
2023-04-26T08:02:45.645Z,4.55
2023-04-26T08:12:47.917Z,5.72
2023-04-26T08:22:49.828Z,10.10
2023-04-26T08:32:51.771Z,14.45
2023-04-26T08:42:54.112Z,3.90
2023-04-26T08:52:56.596Z,8.00
2023-04-26T09:02:58.657Z,3.67
2023-04-26T09:13:00.713Z,5.18
2023-04-26T09:23:09.812Z,23.30
2023-04-26T09:33:11.747Z,1.47
2023-04-26T09:43:14.712Z,9.18
2023-04-26T09:53:37.576Z,2.13
2023-04-26T10:03:40.805Z,3.30
2023-04-26T10:13:43.197Z,5.95
2023-04-26T10:23:45.717Z,4.10
2023-04-26T10:34:28.276Z,2.53
2023-04-26T10:44:41.499Z,6.38
2023-04-26T10:54:48.905Z,2.28
2023-04-26T11:04:52.302Z,2.10
2023-04-26T11:14:54.178Z,13.77
2023-04-26T11:24:56.169Z,4.85
2023-04-26T11:35:00.959Z,3.58
2023-04-26T11:45:03.584Z,8.50
2023-04-26T11:55:06.730Z,2.92
2023-04-26T12:05:09.259Z,6.00
2023-04-26T12:15:13.836Z,3.17
2023-04-26T12:25:19.446Z,4.15
2023-04-26T12:35:21.618Z,3.20
2023-04-26T12:45:24.422Z,2.25
2023-04-26T12:55:26.413Z,3.22
2023-04-26T13:05:28.297Z,3.50
2023-04-26T13:15:30.320Z,2.90
2023-04-26T13:25:32.273Z,5.22
2023-04-26T13:35:34.225Z,1.80
2023-04-26T13:45:36.900Z,5.03
2023-04-26T13:55:38.920Z,3.33
2023-04-26T14:05:40.880Z,11.40
2023-04-26T14:15:42.870Z,4.72
2023-04-26T14:25:44.961Z,4.72
2023-04-26T14:35:47.251Z,6.05
2023-04-26T14:45:49.312Z,7.43
2023-04-26T14:55:55.707Z,5.45
2023-04-26T15:05:57.505Z,4.53
2023-04-26T15:16:04.659Z,2.95
2023-04-26T15:26:08.933Z,6.23
2023-04-26T15:36:10.841Z,1.23
2023-04-26T15:46:16.138Z,7.63
2023-04-26T15:56:18.709Z,6.28
2023-04-26T16:06:20.606Z,7.90
2023-04-26T16:16:23.016Z,2.00
2023-04-26T16:26:25.106Z,3.28
2023-04-26T16:36:27.234Z,5.50
2023-04-26T16:46:29.221Z,17.38
2023-04-26T16:56:31.253Z,4.55
2023-04-26T17:06:33.097Z,5.07
2023-04-26T17:16:35.073Z,7.90
2023-04-26T17:26:37.092Z,3.80
2023-04-26T17:36:38.971Z,4.03
2023-04-26T17:46:40.847Z,3.40
2023-04-26T17:56:42.752Z,6.63
2023-04-26T18:06:44.678Z,3.30
2023-04-26T18:16:46.731Z,5.53
2023-04-26T18:26:48.616Z,3.42
2023-04-26T18:36:50.653Z,8.35
2023-04-26T18:46:52.607Z,7.25
2023-04-26T18:56:54.480Z,6.78
2023-04-26T19:06:56.321Z,7.63
2023-04-26T19:16:58.202Z,4.60
2023-04-26T19:27:00.075Z,24.30
2023-04-26T19:37:02.053Z,92.07
2023-04-26T19:47:04.554Z,57.10
2023-04-26T19:57:06.487Z,83.45
2023-04-26T20:07:08.449Z,93.55
2023-04-26T20:17:10.359Z,198.40
2023-04-26T20:27:12.339Z,107.40
2023-04-26T20:37:14.272Z,61.88
2023-04-26T20:47:16.366Z,40.25
2023-04-26T20:57:18.242Z,33.13
2023-04-26T21:07:20.070Z,60.13
2023-04-26T21:17:21.991Z,45.58
2023-04-26T21:27:23.910Z,48.65
2023-04-26T21:37:25.913Z,41.65
2023-04-26T21:47:28.043Z,43.95
2023-04-26T21:57:29.863Z,26.05
2023-04-26T22:07:31.891Z,18.98
2023-04-26T22:17:33.751Z,48.70
2023-04-26T22:27:35.555Z,86.90
2023-04-26T22:37:37.635Z,79.28
2023-04-26T22:47:40.273Z,64.15
2023-04-26T22:57:42.150Z,59.60
2023-04-26T23:07:44.223Z,30.67
2023-04-26T23:17:46.229Z,14.60
2023-04-26T23:27:48.134Z,32.97
2023-04-26T23:37:49.897Z,26.13
2023-04-26T23:47:52.009Z,19.10
2023-04-26T23:57:54.227Z,15.38
